Time;durP1;ratioP1;P1;durP2;ratioP2;P2;SDS_P1;SDS_P2;PMS_P1;PMS_P2;Temp;Humidity;BMP_temperature;BMP_pressure;BME280_temperature;BME280_humidity;BME280_pressure;Samples;Min_cycle;Max_cycle;Signal;HPM_P1;HPM_P2
2023/07/02 00:01:46;;;;;;;14.55;6.93;;;;;;;15.79;100.00;100577.00;5057105;28;21492;-50
2023/07/02 00:04:15;;;;;;;13.32;6.70;;;;;;;15.79;100.00;100583.13;5071507;28;20052;-51
2023/07/02 00:06:44;;;;;;;15.32;6.85;;;;;;;16.06;100.00;100644.38;5072138;28;20029;-51
2023/07/02 00:09:12;;;;;;;13.48;5.95;;;;;;;16.00;100.00;100639.44;5072489;28;20024;-48
2023/07/02 00:11:38;;;;;;;14.85;6.97;;;;;;;15.98;100.00;100646.63;5072413;28;20055;-52
2023/07/02 00:14:05;;;;;;;12.48;6.32;;;;;;;15.93;100.00;100635.44;5072393;28;20055;-58
2023/07/02 00:16:30;;;;;;;13.30;6.93;;;;;;;15.80;100.00;100631.75;5072485;28;20043;-54
2023/07/02 00:18:55;;;;;;;13.75;6.45;;;;;;;15.48;100.00;100578.72;5053151;28;20036;-53
2023/07/02 00:21:21;;;;;;;13.10;6.63;;;;;;;15.46;100.00;100574.44;5051998;28;20074;-49
2023/07/02 00:23:47;;;;;;;14.07;6.68;;;;;;;15.86;100.00;100639.38;5050103;28;20033;-51
2023/07/02 00:26:13;;;;;;;13.55;7.00;;;;;;;15.45;100.00;100578.88;5050087;28;20033;-51
2023/07/02 00:28:38;;;;;;;15.13;6.50;;;;;;;15.73;100.00;100616.19;5050897;28;20032;-48
2023/07/02 00:31:03;;;;;;;10.68;6.05;;;;;;;15.87;100.00;100633.13;5032910;28;20068;-57
2023/07/02 00:33:31;;;;;;;10.65;6.15;;;;;;;15.87;100.00;100647.25;5033287;28;20040;-52
2023/07/02 00:35:56;;;;;;;12.20;6.28;;;;;;;15.83;100.00;100632.44;5052269;28;20056;-56
2023/07/02 00:38:22;;;;;;;13.43;6.05;;;;;;;15.85;100.00;100646.47;5052093;28;20472;-49
2023/07/02 00:40:47;;;;;;;27.52;22.48;;;;;;;15.95;100.00;100644.16;5050893;28;20036;-52
2023/07/02 00:43:13;;;;;;;10.88;6.28;;;;;;;15.87;100.00;100639.31;5052101;28;20365;-49
2023/07/02 00:45:39;;;;;;;14.20;7.45;;;;;;;15.59;100.00;100594.03;5051929;28;20392;-49
2023/07/02 00:48:05;;;;;;;61.85;54.28;;;;;;;16.01;100.00;100651.78;5052140;28;20033;-55
2023/07/02 00:50:31;;;;;;;14.02;7.57;;;;;;;15.75;100.00;100614.31;5052245;28;20033;-52
2023/07/02 00:52:56;;;;;;;152.55;138.45;;;;;;;16.07;100.00;100664.69;5050324;28;20389;-46
2023/07/02 00:55:22;;;;;;;14.18;8.05;;;;;;;15.79;100.00;100614.97;5034260;28;20128;-49
2023/07/02 00:57:47;;;;;;;17.50;8.35;;;;;;;15.73;100.00;100608.22;5052207;28;20538;-58
2023/07/02 01:00:13;;;;;;;18.65;8.23;;;;;;;15.64;100.00;100610.56;5051878;28;20438;-51
2023/07/02 01:02:43;;;;;;;15.65;7.93;;;;;;;15.98;100.00;100674.03;5033613;28;20103;-51
2023/07/02 01:05:09;;;;;;;16.00;7.90;;;;;;;15.91;100.00;100675.31;5052139;28;20033;-50
2023/07/02 01:07:35;;;;;;;13.13;7.90;;;;;;;15.61;100.00;100618.69;5033656;28;20586;-53
2023/07/02 01:10:00;;;;;;;18.50;8.38;;;;;;;15.89;100.00;100681.66;5051977;28;20041;-50
2023/07/02 01:12:26;;;;;;;19.17;8.27;;;;;;;15.81;100.00;100675.94;5033754;28;20064;-52
2023/07/02 01:14:52;;;;;;;18.23;7.80;;;;;;;15.49;100.00;100643.25;5051771;28;20033;-51
2023/07/02 01:17:19;;;;;;;18.88;7.45;;;;;;;15.34;100.00;100623.72;5034169;28;20472;-54
2023/07/02 01:19:58;;;;;;;17.63;7.47;;;;;;;15.70;100.00;100677.38;5033941;28;20095;-49
2023/07/02 01:22:25;;;;;;;17.10;7.32;;;;;;;15.67;100.00;100674.06;5034215;28;20033;-51
2023/07/02 01:24:51;;;;;;;15.13;6.97;;;;;;;15.60;100.00;100676.22;5053527;28;20043;-50
2023/07/02 01:27:16;;;;;;;17.17;8.20;;;;;;;15.66;100.00;100691.78;5071506;28;20037;-51
2023/07/02 01:29:44;;;;;;;17.30;7.45;;;;;;;15.39;100.00;100650.81;5072160;28;20537;-50
2023/07/02 01:32:10;;;;;;;16.33;7.95;;;;;;;15.59;100.00;100687.75;5053864;28;20503;-52
2023/07/02 01:34:36;;;;;;;18.30;8.18;;;;;;;15.52;100.00;100675.78;5053972;28;20039;-51
2023/07/02 01:37:03;;;;;;;15.75;7.35;;;;;;;15.39;100.00;100661.44;5070577;28;20036;-53
2023/07/02 01:39:28;;;;;;;19.13;8.18;;;;;;;15.06;100.00;100603.13;5052686;28;20036;-55
2023/07/02 01:42:17;;;;;;;18.15;7.97;;;;;;;15.46;100.00;100675.22;5070905;28;20090;-51
2023/07/02 01:44:47;;;;;;;19.17;7.68;;;;;;;15.29;100.00;100646.13;5071960;28;20056;-50
2023/07/02 01:47:13;;;;;;;16.60;7.00;;;;;;;15.42;100.00;100689.56;5071719;28;20082;-53
2023/07/02 01:49:38;;;;;;;15.65;7.70;;;;;;;15.04;100.00;100612.13;5054806;28;20033;-51
2023/07/02 01:52:04;;;;;;;14.95;7.93;;;;;;;15.04;100.00;100612.97;5072848;28;20495;-53
2023/07/02 01:54:31;;;;;;;18.80;8.80;;;;;;;15.00;100.00;100598.16;5057263;28;20512;-52
2023/07/02 01:56:57;;;;;;;16.05;7.82;;;;;;;14.92;100.00;100591.56;5075293;28;20040;-51
2023/07/02 01:59:23;;;;;;;19.13;8.75;;;;;;;15.34;100.00;100678.53;5075067;28;20037;-56
2023/07/02 02:01:48;;;;;;;18.75;7.85;;;;;;;14.91;100.00;100606.66;5073367;28;20067;-56
2023/07/02 02:04:13;;;;;;;13.68;7.43;;;;;;;15.29;100.00;100685.91;5075091;28;20029;-56
2023/07/02 02:06:40;;;;;;;18.48;7.97;;;;;;;14.93;100.00;100625.09;5066462;28;20048;-55
2023/07/02 02:09:05;;;;;;;20.52;8.18;;;;;;;15.20;100.00;100680.16;5054556;28;20074;-53
2023/07/02 02:11:38;;;;;;;20.10;8.15;;;;;;;14.65;100.00;100602.72;5053622;28;20128;-57
2023/07/02 02:14:03;;;;;;;18.00;8.15;;;;;;;14.76;100.00;100623.34;5055123;28;20029;-54
2023/07/02 02:16:29;;;;;;;16.90;8.00;;;;;;;15.00;100.00;100671.56;5054951;28;20040;-50
2023/07/02 02:18:54;;;;;;;22.85;9.20;;;;;;;14.86;100.00;100652.84;5054909;28;20158;-53
2023/07/02 02:21:20;;;;;;;20.60;8.75;;;;;;;15.04;100.00;100691.63;5054917;28;20037;-53
2023/07/02 02:23:46;;;;;;;17.63;9.10;;;;;;;15.02;100.00;100706.78;5053981;28;20391;-57
2023/07/02 02:26:11;;;;;;;19.92;8.52;;;;;;;14.97;100.00;100687.63;5054418;28;20515;-51
2023/07/02 02:28:36;;;;;;;19.48;8.07;;;;;;;15.00;100.00;100704.19;5036896;28;20067;-52
2023/07/02 02:31:02;;;;;;;20.33;9.48;;;;;;;15.05;100.00;100698.66;5054725;28;20117;-54
2023/07/02 02:33:28;;;;;;;22.98;9.20;;;;;;;14.37;100.00;100585.69;5036802;28;20431;-54
2023/07/02 02:35:53;;;;;;;19.92;8.57;;;;;;;15.13;100.00;100717.66;5053201;28;20030;-51
2023/07/02 02:38:18;;;;;;;17.92;8.43;;;;;;;14.72;100.00;100644.78;5064876;28;20064;-52
2023/07/02 02:40:44;;;;;;;16.75;7.78;;;;;;;15.18;100.00;100718.28;5074714;28;20032;-53
2023/07/02 02:43:09;;;;;;;19.23;8.82;;;;;;;15.13;100.00;100710.56;5074478;28;20041;-52
2023/07/02 02:45:34;;;;;;;16.65;8.70;;;;;;;14.69;100.00;100634.34;5056449;28;20032;-56
2023/07/02 02:48:00;;;;;;;20.80;9.23;;;;;;;15.00;100.00;100690.94;5073196;28;20043;-55
2023/07/02 02:50:25;;;;;;;20.02;8.73;;;;;;;15.21;100.00;100720.75;5056132;28;20032;-55
2023/07/02 02:52:50;;;;;;;15.70;8.95;;;;;;;14.75;100.00;100641.97;5073955;28;20040;-56
2023/07/02 02:55:16;;;;;;;26.38;8.70;;;;;;;14.85;100.00;100664.41;5073044;28;20480;-51
2023/07/02 02:57:42;;;;;;;21.67;8.10;;;;;;;15.11;100.00;100725.72;5074457;28;20089;-52
2023/07/02 03:00:09;;;;;;;25.77;9.63;;;;;;;15.07;100.00;100718.84;5073708;28;20035;-56
2023/07/02 03:02:35;;;;;;;25.58;10.07;;;;;;;14.58;100.00;100653.44;5073710;28;20499;-57
2023/07/02 03:05:02;;;;;;;26.88;9.23;;;;;;;14.95;100.00;100718.63;5074169;28;20115;-53
2023/07/02 03:07:31;;;;;;;20.10;8.25;;;;;;;13.63;100.00;100529.47;5074035;28;20037;-50
2023/07/02 03:09:57;;;;;;;21.90;8.85;;;;;;;14.48;100.00;100660.13;5072218;28;20036;-53
2023/07/02 03:12:22;;;;;;;21.58;9.07;;;;;;;14.75;100.00;100716.16;5054033;28;20029;-51
2023/07/02 03:14:52;;;;;;;22.48;8.93;;;;;;;14.66;100.00;100712.19;5053878;28;20112;-53
2023/07/02 03:17:18;;;;;;;26.27;8.48;;;;;;;14.63;100.00;100707.03;5053758;28;20484;-49
2023/07/02 03:19:44;;;;;;;25.70;8.90;;;;;;;14.60;100.00;100705.41;5053884;28;20450;-50
2023/07/02 03:22:09;;;;;;;22.90;9.60;;;;;;;14.58;100.00;100719.66;5035550;28;20033;-54
2023/07/02 03:24:34;;;;;;;19.42;8.68;;;;;;;14.19;100.00;100663.38;5053558;28;20094;-54
2023/07/02 03:27:00;;;;;;;18.90;8.23;;;;;;;14.45;100.00;100705.31;5053058;28;20056;-52
2023/07/02 03:29:25;;;;;;;19.77;8.48;;;;;;;14.14;100.00;100663.63;5053515;28;20037;-54
2023/07/02 03:31:50;;;;;;;18.77;7.97;;;;;;;14.06;100.00;100645.47;5053367;28;20032;-53
2023/07/02 03:34:16;;;;;;;23.13;8.10;;;;;;;14.05;100.00;100648.19;5035721;28;20041;-52
2023/07/02 03:36:41;;;;;;;25.83;8.75;;;;;;;14.36;100.00;100708.44;5053200;28;20025;-52
2023/07/02 03:39:06;;;;;;;15.98;7.15;;;;;;;14.35;100.00;100715.53;5053375;28;20037;-57
2023/07/02 03:41:32;;;;;;;20.75;8.48;;;;;;;13.95;100.00;100657.53;5035619;28;20040;-53
2023/07/02 03:43:57;;;;;;;21.63;8.90;;;;;;;13.95;100.00;100658.34;5052831;28;20041;-55
2023/07/02 03:46:22;;;;;;;19.67;8.00;;;;;;;14.35;100.00;100728.78;5053149;28;20040;-51
2023/07/02 03:48:48;;;;;;;18.65;8.55;;;;;;;14.38;100.00;100727.75;5052051;28;20392;-52
2023/07/02 03:51:15;;;;;;;17.45;7.95;;;;;;;13.11;100.00;100512.66;5052871;28;20373;-52
2023/07/02 03:53:41;;;;;;;23.15;7.50;;;;;;;14.37;100.00;100739.28;5053659;28;20086;-50
2023/07/02 03:56:06;;;;;;;19.52;8.77;;;;;;;13.96;100.00;100661.88;5052786;28;20102;-50
2023/07/02 03:58:32;;;;;;;16.20;8.30;;;;;;;14.22;100.00;100706.44;5053078;28;20427;-55
2023/07/02 04:00:57;;;;;;;20.42;9.38;;;;;;;13.98;100.00;100673.25;5047930;28;20444;-54
2023/07/02 04:03:22;;;;;;;16.85;7.40;;;;;;;14.02;100.00;100682.75;5054897;28;20060;-56
2023/07/02 04:05:48;;;;;;;16.75;6.88;;;;;;;13.99;100.00;100667.88;5072655;28;20032;-56
2023/07/02 04:08:13;;;;;;;19.05;8.25;;;;;;;14.39;100.00;100745.38;5073096;28;20051;-55
2023/07/02 04:10:38;;;;;;;19.88;7.45;;;;;;;14.27;100.00;100733.56;5072678;28;20033;-53
2023/07/02 04:13:04;;;;;;;17.45;7.18;;;;;;;14.00;100.00;100696.06;5071102;28;20040;-55
2023/07/02 04:15:29;;;;;;;17.70;6.88;;;;;;;14.01;100.00;100691.59;5054686;28;20036;-57
2023/07/02 04:17:54;;;;;;;17.55;7.15;;;;;;;14.35;100.00;100749.09;5070618;28;20040;-57
2023/07/02 04:20:20;;;;;;;13.85;6.65;;;;;;;13.99;100.00;100694.34;5072572;28;20365;-53
2023/07/02 04:22:46;;;;;;;15.00;6.45;;;;;;;14.33;100.00;100738.56;5054544;28;20047;-54
2023/07/02 04:25:14;;;;;;;14.73;7.30;;;;;;;14.42;100.00;100756.66;5071367;28;20044;-55
2023/07/02 04:27:40;;;;;;;15.82;7.40;;;;;;;14.47;100.00;100759.09;5054668;28;20031;-51
2023/07/02 04:30:08;;;;;;;14.05;6.93;;;;;;;14.38;100.00;100730.41;5054476;28;20036;-54
2023/07/02 04:32:33;;;;;;;16.55;6.78;;;;;;;14.51;100.00;100763.28;5069911;28;20028;-53
2023/07/02 04:34:58;;;;;;;13.63;6.82;;;;;;;14.52;100.00;100767.66;5072368;28;20039;-51
2023/07/02 04:37:24;;;;;;;13.55;6.70;;;;;;;14.07;100.00;100688.66;5072618;28;20484;-49
2023/07/02 04:39:49;;;;;;;16.48;6.57;;;;;;;14.52;100.00;100773.81;5072540;28;20032;-49
2023/07/02 04:42:14;;;;;;;15.77;6.30;;;;;;;14.19;100.00;100708.38;5072247;28;20119;-51
2023/07/02 04:44:43;;;;;;;16.98;7.03;;;;;;;14.61;100.00;100776.00;5072271;28;20127;-52
2023/07/02 04:47:08;;;;;;;16.27;7.85;;;;;;;14.60;100.00;100779.59;5072008;28;20037;-54
2023/07/02 04:49:33;;;;;;;15.32;6.35;;;;;;;14.29;100.00;100707.88;5061005;28;20118;-56
2023/07/02 04:51:59;;;;;;;16.85;7.45;;;;;;;14.68;100.00;100773.91;5034266;28;20400;-51
2023/07/02 04:54:24;;;;;;;14.35;6.57;;;;;;;14.40;100.00;100712.66;5052338;28;20037;-50
2023/07/02 04:56:50;;;;;;;16.20;6.82;;;;;;;14.46;100.00;100722.94;5052196;28;20037;-52
2023/07/02 04:59:15;;;;;;;14.05;6.43;;;;;;;14.89;100.00;100787.84;5051805;28;20041;-50
2023/07/02 05:01:41;;;;;;;15.95;7.07;;;;;;;14.89;100.00;100775.47;5056157;28;20021;-51
2023/07/02 05:04:07;;;;;;;16.30;6.85;;;;;;;14.95;100.00;100782.22;5068664;28;20093;-51
2023/07/02 05:06:32;;;;;;;14.45;6.38;;;;;;;14.96;100.00;100789.25;5053758;28;20082;-54
2023/07/02 05:08:58;;;;;;;12.90;6.25;;;;;;;14.53;100.00;100711.09;5071647;28;20498;-48
2023/07/02 05:11:23;;;;;;;15.75;6.53;;;;;;;14.62;100.00;100723.88;5071197;28;20494;-55
2023/07/02 05:13:48;;;;;;;11.82;6.20;;;;;;;14.63;100.00;100715.84;5072197;28;20123;-52
2023/07/02 05:16:14;;;;;;;21.30;7.07;;;;;;;15.08;100.00;100773.59;5071837;28;20043;-51
2023/07/02 05:18:39;;;;;;;15.43;6.22;;;;;;;14.77;100.00;100727.56;5069669;28;20063;-55
2023/07/02 05:21:04;;;;;;;17.90;6.00;;;;;;;15.15;100.00;100782.06;5054214;28;20097;-54
2023/07/02 05:23:30;;;;;;;16.15;7.10;;;;;;;14.77;100.00;100714.31;5072159;28;20040;-53
2023/07/02 05:25:55;;;;;;;13.40;6.07;;;;;;;15.32;100.00;100802.41;5074433;28;20035;-53
2023/07/02 05:28:20;;;;;;;15.85;6.03;;;;;;;15.04;100.00;100745.53;5073079;28;20043;-48
2023/07/02 05:30:46;;;;;;;13.65;6.20;;;;;;;15.51;100.00;100808.50;5074666;28;20029;-50
2023/07/02 05:33:12;;;;;;;16.25;6.88;;;;;;;15.47;100.00;100789.22;5075804;28;20028;-55
2023/07/02 05:35:37;;;;;;;16.48;6.15;;;;;;;15.66;100.00;100810.34;5075791;28;20036;-52
2023/07/02 05:38:03;;;;;;;17.13;7.35;;;;;;;15.37;100.00;100756.16;5075944;28;20388;-56
2023/07/02 05:40:28;;;;;;;15.02;6.07;;;;;;;15.67;100.00;100798.78;5075700;28;20530;-54
2023/07/02 05:42:53;;;;;;;16.67;6.28;;;;;;;15.99;100.00;100831.53;5075439;28;20036;-52
2023/07/02 05:45:19;;;;;;;14.23;6.15;;;;;;;16.01;100.00;100832.31;5057628;28;20036;-56
2023/07/02 05:47:44;;;;;;;15.02;6.53;;;;;;;15.88;100.00;100821.50;5074499;28;20043;-55
2023/07/02 05:50:09;;;;;;;15.30;6.65;;;;;;;15.94;100.00;100813.19;5075354;28;20032;-55
2023/07/02 05:52:35;;;;;;;16.00;6.38;;;;;;;15.60;100.00;100777.03;5074957;28;20036;-55
2023/07/02 05:55:00;;;;;;;14.75;7.07;;;;;;;16.02;100.00;100845.50;5073836;28;20514;-54
2023/07/02 05:57:25;;;;;;;15.00;5.85;;;;;;;16.02;100.00;100847.31;5075247;28;20123;-52
2023/07/02 05:59:50;;;;;;;14.40;5.95;;;;;;;15.85;100.00;100804.91;5075473;28;20028;-52
2023/07/02 06:02:16;;;;;;;16.23;6.28;;;;;;;16.03;100.00;100828.63;5075004;28;20068;-52
2023/07/02 06:04:41;;;;;;;14.35;6.53;;;;;;;16.20;100.00;100838.31;5072945;28;20044;-55
2023/07/02 06:07:06;;;;;;;16.67;6.63;;;;;;;15.92;100.00;100790.34;5075656;28;20059;-58
2023/07/02 06:09:32;;;;;;;21.35;7.00;;;;;;;16.39;100.00;100846.13;5075303;28;20399;-52
2023/07/02 06:11:58;;;;;;;11.55;5.63;;;;;;;16.19;100.00;100810.06;5075044;28;20452;-54
2023/07/02 06:14:25;;;;;;;12.30;6.35;;;;;;;16.37;100.00;100851.53;5074960;28;20158;-57
2023/07/02 06:16:51;;;;;;;14.00;5.68;;;;;;;16.34;100.00;100863.16;5074993;28;20082;-52
2023/07/02 06:19:16;;;;;;;10.52;5.88;;;;;;;16.43;100.00;100856.50;5073704;28;20040;-53
2023/07/02 06:21:42;;;;;;;13.55;5.22;;;;;;;16.48;100.00;100833.19;5075033;28;20038;-53
2023/07/02 06:24:07;;;;;;;14.80;5.97;;;;;;;16.33;100.00;100795.06;5073406;28;20058;-52
2023/07/02 06:26:33;;;;;;;12.00;6.07;;;;;;;16.40;100.00;100811.50;5074748;28;20076;-57
2023/07/02 06:28:58;;;;;;;14.75;5.60;;;;;;;16.68;100.00;100866.63;5074659;28;20498;-55
2023/07/02 06:31:23;;;;;;;15.32;6.07;;;;;;;16.30;100.00;100800.53;5056656;28;20033;-56
2023/07/02 06:33:49;;;;;;;16.45;6.15;;;;;;;16.29;100.00;100796.16;5074535;28;20430;-57
2023/07/02 06:36:14;;;;;;;13.82;6.10;;;;;;;16.39;100.00;100814.22;5072970;28;20290;-52
2023/07/02 06:38:40;;;;;;;12.98;6.05;;;;;;;16.95;100.00;100877.47;5074764;28;20120;-59
2023/07/02 06:41:05;;;;;;;14.98;5.90;;;;;;;16.74;100.00;100810.44;5073512;28;20037;-53
2023/07/02 06:43:30;;;;;;;8.90;5.05;;;;;;;17.07;100.00;100864.31;5074601;28;20033;-52
2023/07/02 06:45:56;;;;;;;15.73;6.20;;;;;;;17.27;100.00;100876.44;5056557;28;20032;-54
2023/07/02 06:48:21;;;;;;;11.00;5.07;;;;;;;17.34;100.00;100881.28;5056396;28;20399;-57
2023/07/02 06:50:47;;;;;;;13.38;5.65;;;;;;;17.35;100.00;100861.72;5074481;28;20033;-57
2023/07/02 06:53:12;;;;;;;17.50;6.70;;;;;;;17.61;100.00;100885.94;5056134;28;20396;-51
2023/07/02 06:55:38;;;;;;;12.90;6.18;;;;;;;17.10;100.00;100810.97;5053090;28;20116;-57
2023/07/02 06:58:07;;;;;;;15.82;6.43;;;;;;;17.23;100.00;100909.47;5054395;28;20040;-54
2023/07/02 07:00:35;;;;;;;13.43;5.50;;;;;;;17.01;100.00;100880.63;5053085;28;20078;-52
2023/07/02 07:03:02;;;;;;;14.85;5.57;;;;;;;17.13;100.00;100910.97;5052664;28;20053;-55
2023/07/02 07:05:28;;;;;;;20.13;6.10;;;;;;;17.26;100.00;100906.63;5054320;28;20041;-53
2023/07/02 07:07:54;;;;;;;13.23;5.97;;;;;;;16.94;100.00;100833.19;5052954;28;20035;-52
2023/07/02 07:10:20;;;;;;;9.98;5.05;;;;;;;17.44;100.00;100921.53;5053097;28;20037;-52
2023/07/02 07:12:45;;;;;;;12.48;6.28;;;;;;;17.10;100.00;100850.84;5053742;28;20060;-50
2023/07/02 07:15:10;;;;;;;11.88;5.78;;;;;;;17.10;100.00;100842.88;5053855;28;20033;-53
2023/07/02 07:17:36;;;;;;;12.40;5.38;;;;;;;17.65;100.00;100940.72;5035941;28;20033;-57
2023/07/02 07:20:04;;;;;;;10.52;5.50;;;;;;;17.38;100.00;100889.97;5054103;28;20037;-57
2023/07/02 07:22:30;;;;;;;12.95;5.50;;;;;;;17.78;100.00;100957.66;5053928;28;20037;-58
2023/07/02 07:24:55;;;;;;;15.43;5.32;;;;;;;17.48;100.00;100877.81;5053592;28;20068;-50
2023/07/02 07:27:20;;;;;;;10.02;5.45;;;;;;;17.87;100.00;100955.31;5053040;28;20045;-55
2023/07/02 07:29:46;;;;;;;11.45;5.68;;;;;;;17.63;100.00;100887.56;5053593;28;20135;-54
2023/07/02 07:32:11;;;;;;;12.20;5.10;;;;;;;18.16;100.00;100944.66;5035530;28;20044;-54
2023/07/02 07:34:36;;;;;;;10.40;5.15;;;;;;;18.20;100.00;100940.88;5053508;28;20049;-55
2023/07/02 07:37:02;;;;;;;12.35;5.15;;;;;;;18.13;100.00;100960.81;5035709;28;20037;-50
2023/07/02 07:39:27;;;;;;;12.45;5.43;;;;;;;18.07;100.00;100969.22;5052318;28;20032;-53
2023/07/02 07:41:53;;;;;;;16.65;5.63;;;;;;;17.75;100.00;100881.50;5053398;28;20043;-54
2023/07/02 07:44:18;;;;;;;9.57;5.10;;;;;;;18.49;100.00;100956.78;5066673;28;20082;-54
2023/07/02 07:46:43;;;;;;;9.30;5.47;;;;;;;18.51;100.00;100941.53;5072298;28;20029;-53
2023/07/02 07:49:09;;;;;;;11.20;4.75;;;;;;;18.49;100.00;100898.13;5072858;28;20043;-51
2023/07/02 07:51:35;;;;;;;12.40;4.68;;;;;;;18.60;100.00;100900.09;5054835;28;20055;-55
2023/07/02 07:54:01;;;;;;;12.95;5.90;;;;;;;19.24;100.00;100965.25;5073007;28;20054;-58
2023/07/02 07:56:26;;;;;;;12.35;5.15;;;;;;;19.57;100.00;100974.56;5072737;28;20115;-59
2023/07/02 07:58:52;;;;;;;11.57;4.90;;;;;;;20.06;100.00;100972.06;5070789;28;20456;-58
2023/07/02 08:01:17;;;;;;;7.65;4.47;;;;;;;20.40;100.00;100977.75;5072585;28;20028;-60
2023/07/02 08:03:42;;;;;;;9.80;4.82;;;;;;;20.35;100.00;100924.59;5068041;28;20060;-56
2023/07/02 08:06:08;;;;;;;9.93;4.80;;;;;;;21.01;100.00;100977.72;5053114;28;20037;-57
2023/07/02 08:08:34;;;;;;;10.20;4.78;;;;;;;21.08;100.00;100917.44;5052788;28;20386;-58
2023/07/02 08:10:59;;;;;;;14.40;4.30;;;;;;;21.55;100.00;100994.19;5052435;28;20033;-59
2023/07/02 08:13:24;;;;;;;12.00;5.20;;;;;;;22.07;100.00;100998.25;5048682;28;20036;-59
2023/07/02 08:15:49;;;;;;;10.48;4.95;;;;;;;22.06;100.00;100978.69;5041632;28;20036;-60
2023/07/02 08:18:15;;;;;;;8.75;4.53;;;;;;;22.22;100.00;100981.00;5050421;28;20048;-58
2023/07/02 08:20:40;;;;;;;7.43;3.78;;;;;;;21.88;100.00;100929.16;5052590;28;20037;-57
2023/07/02 08:23:05;;;;;;;10.70;3.90;;;;;;;21.91;100.00;100963.78;5053026;28;20120;-61
2023/07/02 08:25:31;;;;;;;8.95;4.90;;;;;;;22.33;100.00;100994.41;5051891;28;20065;-56
2023/07/02 08:27:56;;;;;;;9.10;4.10;;;;;;;22.49;100.00;101002.09;5052419;28;20037;-59
2023/07/02 08:30:22;;;;;;;8.00;4.35;;;;;;;22.53;100.00;100956.16;5051792;28;20040;-57
2023/07/02 08:32:47;;;;;;;8.80;4.07;;;;;;;22.81;100.00;100952.97;5052372;28;20037;-58
2023/07/02 08:35:13;;;;;;;10.55;4.80;;;;;;;22.70;100.00;101016.53;5049695;28;20025;-60
2023/07/02 08:37:38;;;;;;;10.98;5.03;;;;;;;22.62;100.00;100974.16;5036727;28;20033;-58
2023/07/02 08:40:04;;;;;;;9.45;4.30;;;;;;;22.85;100.00;101026.88;5031994;28;20040;-56
2023/07/02 08:42:32;;;;;;;13.13;5.32;;;;;;;22.96;100.00;100965.13;5047755;28;20065;-60
2023/07/02 08:44:59;;;;;;;13.80;5.35;;;;;;;22.83;100.00;101019.91;5032245;28;20418;-58
2023/07/02 08:47:24;;;;;;;10.07;5.70;;;;;;;22.98;100.00;101024.06;5032432;28;20052;-56
2023/07/02 08:49:50;;;;;;;10.80;4.85;;;;;;;22.47;100.00;100959.31;5030877;28;20037;-59
2023/07/02 08:52:15;;;;;;;10.27;5.13;;;;;;;23.13;100.00;101019.28;5030792;28;20464;-58
2023/07/02 08:54:42;;;;;;;10.18;5.15;;;;;;;23.06;100.00;101018.09;5031211;28;20033;-59
2023/07/02 08:57:09;;;;;;;12.80;5.03;;;;;;;23.10;100.00;101014.16;5032199;28;20041;-59
2023/07/02 08:59:35;;;;;;;8.50;3.92;;;;;;;23.47;100.00;101034.34;5031776;28;20033;-60
2023/07/02 09:02:01;;;;;;;8.43;4.53;;;;;;;23.87;100.00;101040.81;5032476;28;20440;-59
2023/07/02 09:04:26;;;;;;;8.60;4.10;;;;;;;23.49;100.00;100990.28;5052081;28;20106;-58
2023/07/02 09:07:03;;;;;;;7.72;4.40;;;;;;;23.18;100.00;100964.22;5051849;28;20072;-60
2023/07/02 09:09:29;;;;;;;8.00;3.90;;;;;;;23.21;100.00;100971.16;5052029;28;20044;-59
2023/07/02 09:11:54;;;;;;;10.88;4.40;;;;;;;24.15;100.00;101028.56;5060019;28;20033;-59
2023/07/02 09:14:30;;;;;;;12.00;5.70;;;;;;;23.41;100.00;100963.19;5071861;28;20052;-59
2023/07/02 09:17:06;;;;;;;11.75;4.45;;;;;;;23.78;100.00;100984.25;5072232;28;20097;-59
2023/07/02 09:19:33;;;;;;;11.98;4.78;;;;;;;23.44;100.00;100983.56;5071837;28;20055;-59
2023/07/02 09:22:00;;;;;;;10.82;4.10;;;;;;;24.07;100.00;101039.09;5071901;28;20028;-58
2023/07/02 09:24:26;;;;;;;10.90;4.35;;;;;;;24.06;100.00;101043.63;5067510;28;20055;-60
2023/07/02 09:26:53;;;;;;;9.77;4.25;;;;;;;23.50;100.00;100980.34;5070791;28;20043;-60
2023/07/02 09:29:24;;;;;;;9.80;3.65;;;;;;;23.56;100.00;100981.66;5067947;28;20029;-60
2023/07/02 09:31:49;;;;;;;;;;;;;;;23.78;100.00;101041.56;5072539;28;20037;-61
2023/07/02 09:34:15;;;;;;;7.75;4.30;;;;;;;23.46;100.00;100978.94;5054132;28;20010;-59
2023/07/02 09:36:41;;;;;;;7.93;3.92;;;;;;;23.35;100.00;100992.38;5070539;28;20078;-56
2023/07/02 09:39:14;;;;;;;10.35;4.53;;;;;;;23.81;100.00;101054.75;5071374;28;20037;-62
2023/07/02 09:41:41;;;;;;;7.95;4.43;;;;;;;23.99;100.00;101028.97;5071737;28;20037;-62
2023/07/02 09:44:07;;;;;;;7.45;3.70;;;;;;;24.01;100.00;101035.09;5053395;28;20112;-59
2023/07/02 09:46:34;;;;;;;10.68;4.88;;;;;;;23.65;100.00;101040.03;5067924;28;20052;-60
2023/07/02 09:48:59;;;;;;;7.28;3.95;;;;;;;23.28;100.00;101040.38;5052722;28;20036;-58
2023/07/02 09:51:25;;;;;;;10.15;3.70;;;;;;;23.06;100.00;101024.28;5071553;28;20060;-60
2023/07/02 09:53:51;;;;;;;8.45;3.55;;;;;;;23.30;100.00;100983.81;5069954;28;20067;-59
2023/07/02 09:56:18;;;;;;;10.55;4.15;;;;;;;23.73;100.00;101042.94;5053578;28;20082;-61
2023/07/02 09:58:44;;;;;;;8.27;3.47;;;;;;;23.29;100.00;100987.50;5070445;28;20043;-60
2023/07/02 10:01:10;;;;;;;6.75;3.40;;;;;;;23.72;100.00;101046.59;5070265;28;20064;-60
2023/07/02 10:03:35;;;;;;;10.13;3.78;;;;;;;23.81;100.00;101045.84;5068115;28;20079;-61
2023/07/02 10:06:07;;;;;;;15.27;4.38;;;;;;;24.33;100.00;100999.22;5071318;28;20372;-62
2023/07/02 10:08:32;;;;;;;7.90;3.95;;;;;;;24.78;100.00;101056.25;5059294;28;20043;-59
2023/07/02 10:11:13;;;;;;;7.15;4.15;;;;;;;24.85;100.00;101050.19;5056440;28;20028;-61
2023/07/02 10:13:39;;;;;;;;;;;;;;;25.41;100.00;101061.28;5055324;28;20036;-59
2023/07/02 10:16:06;;;;;;;7.70;3.63;;;;;;;25.02;98.36;101071.09;5054879;28;19913;-61
2023/07/02 10:18:31;;;;;;;8.02;4.20;;;;;;;24.49;100.00;101010.31;5036802;28;20060;-61
2023/07/02 10:20:56;;;;;;;6.00;3.65;;;;;;;25.10;100.00;101055.09;5055788;28;20530;-60
2023/07/02 10:23:34;;;;;;;6.72;3.55;;;;;;;24.53;100.00;101014.47;5073995;28;20032;-61
2023/07/02 10:26:18;;;;;;;8.00;3.97;;;;;;;25.31;95.93;101011.03;5051054;28;20043;-58
2023/07/02 10:28:59;;;;;;;8.30;3.88;;;;;;;25.48;91.24;101013.94;5073500;28;20024;-61
2023/07/02 10:31:26;;;;;;;7.75;3.60;;;;;;;25.04;98.30;101022.50;5074442;28;20049;-60
2023/07/02 10:33:51;;;;;;;7.80;3.90;;;;;;;25.41;95.82;101049.63;5056891;28;20467;-59
2023/07/02 10:36:20;;;;;;;7.00;3.95;;;;;;;25.28;98.61;101084.09;5074863;28;20033;-60
2023/07/02 10:38:46;;;;;;;6.70;3.85;;;;;;;24.86;97.75;101019.59;5074659;28;20113;-60
2023/07/02 10:41:12;;;;;;;5.97;4.32;;;;;;;24.79;97.61;101066.84;5074540;28;20519;-60
2023/07/02 10:43:38;;;;;;;7.47;4.38;;;;;;;23.86;90.49;101019.41;5055160;28;20033;-60
2023/07/02 10:46:04;;;;;;;10.13;4.60;;;;;;;23.51;97.64;101070.72;5074582;28;20506;-59
2023/07/02 10:48:30;;;;;;;8.05;4.10;;;;;;;22.72;98.76;101044.09;5074602;28;20430;-60
2023/07/02 10:50:56;;;;;;;7.30;3.80;;;;;;;22.72;100.00;101012.75;5074029;28;20029;-58
2023/07/02 10:53:21;;;;;;;6.82;3.85;;;;;;;23.06;100.00;101083.34;5074264;28;20098;-58
2023/07/02 10:55:54;;;;;;;7.13;4.35;;;;;;;23.41;100.00;101100.19;5073976;28;20475;-60
2023/07/02 10:58:20;;;;;;;6.35;4.18;;;;;;;23.02;99.75;100989.78;5074043;28;20043;-57
2023/07/02 11:00:47;;;;;;;7.55;4.35;;;;;;;23.60;100.00;101069.13;5073401;28;20036;-60
2023/07/02 11:03:23;;;;;;;7.85;3.88;;;;;;;23.35;100.00;101092.59;5074080;28;20056;-58
2023/07/02 11:05:49;;;;;;;8.27;4.25;;;;;;;22.95;100.00;101016.25;5056667;28;20025;-59
2023/07/02 11:08:15;;;;;;;5.82;4.05;;;;;;;23.27;98.70;101080.75;5054534;28;20123;-59